KAUS/AUS METAR and TAF weather

Enter ICAO airport designator
Station Type Date Time Source
KAUS METAR 2018/01/23 00:53 UTC NOAA

KAUS 230053Z 32004KT 10SM FEW200 13/M05 A3012 RMK AO2 SLP201 T01281050


Station Type Date Time Source
KAUS Decoded METAR 2018/01/23 00:53 UTC NOAA

AUSTIN-BERGSTROM INTERNATIONAL AIRPORT, TX, United States (KAUS) 30-11N 097-41W 172M
Jan 22, 2018 - 07:53 PM EST / 2018.01.23 0053 UTC
Wind: from the NW (320 degrees) at 5 MPH (4 KT):0
Visibility: 10 mile(s):0
Sky conditions: mostly clear
Temperature: 55.0 F (12.8 C)
Dew Point: 23.0 F (-5.0 C)
Relative Humidity: 28%
Pressure (altimeter): 30.12 in. Hg (1019 hPa)
ob: KAUS 230053Z 32004KT 10SM FEW200 13/M05 A3012 RMK AO2 SLP201 T01281050
cycle: 1

Station Type Date Time Source
KAUS TAF 2018/01/22 18:22 UTC NOAA

TAF KAUS 221720Z 2218/2324 32012G22KT P6SM SKC
FM230000 31005KT P6SM FEW250


Example: see airport list